Time;durP1;ratioP1;P1;durP2;ratioP2;P2;SDS_P1;SDS_P2;PMS_P1;PMS_P2;Temp;Humidity;BMP_temperature;BMP_pressure;BME280_temperature;BME280_humidity;BME280_pressure;Samples;Min_cycle;Max_cycle;Signal;HPM_P1;HPM_P2
2023/12/15 00:01:01;;;;;;;1.95;1.85;;;16.30;72.20;;;;;;5032511;28;20149;-94
2023/12/15 00:03:27;;;;;;;2.00;1.90;;;16.30;72.40;;;;;;5074327;28;20087;-94
2023/12/15 00:05:54;;;;;;;2.30;2.20;;;16.30;72.00;;;;;;5054777;28;20103;-95
2023/12/15 00:08:19;;;;;;;1.70;1.52;;;16.30;72.30;;;;;;5059208;28;20071;-96
2023/12/15 00:10:45;;;;;;;2.10;2.00;;;16.30;72.00;;;;;;5059538;28;20510;-95
2023/12/15 00:13:11;;;;;;;1.55;1.45;;;16.30;72.10;;;;;;5041983;28;20106;-95
2023/12/15 00:15:36;;;;;;;1.95;1.85;;;16.30;72.10;;;;;;5038107;28;20042;-95
2023/12/15 00:18:02;;;;;;;2.03;1.92;;;16.30;72.10;;;;;;5040718;28;20075;-96
2023/12/15 00:20:28;;;;;;;1.60;1.50;;;16.30;72.10;;;;;;5036153;28;20049;-96
2023/12/15 00:22:54;;;;;;;1.80;1.70;;;16.30;72.10;;;;;;5052813;28;20094;-95
2023/12/15 00:25:20;;;;;;;2.10;2.00;;;16.30;72.90;;;;;;5043257;28;20044;-96
2023/12/15 00:27:45;;;;;;;1.83;1.73;;;16.30;72.10;;;;;;5064407;28;20089;-96
2023/12/15 00:30:13;;;;;;;1.98;1.88;;;16.30;72.10;;;;;;5074917;28;20051;-96
2023/12/15 00:32:38;;;;;;;1.90;1.80;;;16.30;72.00;;;;;;5059282;28;20055;-96
2023/12/15 00:35:04;;;;;;;1.90;1.80;;;16.30;71.90;;;;;;5060776;28;20037;-96
2023/12/15 00:37:30;;;;;;;1.83;1.73;;;16.30;72.00;;;;;;5032615;28;20045;-96
2023/12/15 00:39:55;;;;;;;1.65;1.55;;;16.30;72.00;;;;;;5060501;28;20052;-96
2023/12/15 00:42:21;;;;;;;1.75;1.65;;;16.30;72.00;;;;;;5043212;28;20045;-94
2023/12/15 00:44:46;;;;;;;1.48;1.38;;;16.30;71.90;;;;;;5054708;28;20067;-96
2023/12/15 00:47:14;;;;;;;3.05;1.90;;;16.30;71.90;;;;;;5025885;28;20517;-95
2023/12/15 00:49:39;;;;;;;1.60;1.50;;;16.30;71.90;;;;;;5012413;28;20106;-93
2023/12/15 00:52:05;;;;;;;1.70;1.60;;;16.30;71.90;;;;;;5062870;28;20547;-93
2023/12/15 00:54:31;;;;;;;1.88;1.73;;;16.30;71.90;;;;;;5061816;28;20115;-96
2023/12/15 00:56:56;;;;;;;1.60;1.50;;;16.30;72.20;;;;;;5061148;28;20075;-96
2023/12/15 00:59:22;;;;;;;1.70;1.60;;;16.30;72.00;;;;;;5063605;28;20045;-96
2023/12/15 01:01:47;;;;;;;1.95;1.85;;;16.30;71.80;;;;;;5049057;28;20068;-94
2023/12/15 01:04:13;;;;;;;1.50;1.40;;;16.30;71.90;;;;;;5043585;28;20166;-96
2023/12/15 01:06:38;;;;;;;1.50;1.40;;;16.30;71.90;;;;;;5035725;28;20045;-96
2023/12/15 01:09:05;;;;;;;1.90;1.80;;;16.30;72.00;;;;;;5030214;28;20048;-96
2023/12/15 01:11:30;;;;;;;1.60;1.50;;;16.30;72.00;;;;;;5063985;28;20041;-96
2023/12/15 01:13:56;;;;;;;1.80;1.70;;;16.30;71.90;;;;;;5072778;28;20054;-96
2023/12/15 01:16:21;;;;;;;1.50;1.40;;;16.30;72.00;;;;;;5067040;28;20241;-96
2023/12/15 01:18:47;;;;;;;1.73;1.50;;;16.30;71.80;;;;;;5075468;28;20024;-96
2023/12/15 01:21:12;;;;;;;1.45;1.35;;;16.30;71.90;;;;;;5060832;28;20049;-96
2023/12/15 01:23:38;;;;;;;1.38;1.27;;;16.30;71.80;;;;;;5058136;28;20041;-92
2023/12/15 01:26:04;;;;;;;1.35;1.25;;;16.30;71.90;;;;;;5071925;28;20078;-95
2023/12/15 01:28:30;;;;;;;1.00;1.00;;;16.30;71.90;;;;;;5028102;28;20052;-95
2023/12/15 01:30:55;;;;;;;1.60;1.50;;;16.30;71.90;;;;;;5078447;28;20410;-96
2023/12/15 01:33:21;;;;;;;1.20;1.20;;;16.30;71.80;;;;;;5053932;28;20517;-96
2023/12/15 01:35:47;;;;;;;1.77;1.67;;;16.30;71.90;;;;;;5043268;28;20609;-96
2023/12/15 01:38:12;;;;;;;1.55;1.45;;;16.30;71.80;;;;;;5059290;28;20388;-96
2023/12/15 01:40:38;;;;;;;1.50;1.40;;;16.30;71.80;;;;;;5081263;28;20077;-96
2023/12/15 01:43:04;;;;;;;1.10;1.00;;;16.30;71.80;;;;;;5062983;28;20311;-96
2023/12/15 01:45:29;;;;;;;1.20;1.10;;;16.30;72.50;;;;;;5053557;28;20029;-95
2023/12/15 01:47:55;;;;;;;0.93;0.93;;;16.30;71.80;;;;;;5046420;28;20056;-95
2023/12/15 01:50:21;;;;;;;1.40;1.30;;;16.20;71.70;;;;;;5036954;28;20063;-95
2023/12/15 01:52:46;;;;;;;0.90;0.80;;;16.20;71.70;;;;;;5054730;28;20128;-95
2023/12/15 01:55:12;;;;;;;1.00;1.00;;;16.30;71.70;;;;;;5029669;28;20435;-94
2023/12/15 01:57:37;;;;;;;4.00;0.90;;;16.20;71.70;;;;;;5050474;28;20592;-95
2023/12/15 02:00:06;;;;;;;0.90;0.90;;;16.30;71.80;;;;;;5012930;28;20098;-96
2023/12/15 02:02:35;;;;;;;1.27;0.95;;;16.30;71.70;;;;;;5033331;28;20126;-96
2023/12/15 02:05:02;;;;;;;0.93;0.93;;;16.30;71.70;;;;;;5074523;28;20064;-95
2023/12/15 02:07:28;;;;;;;1.15;1.05;;;16.30;71.70;;;;;;5045004;28;20124;-95
2023/12/15 02:09:54;;;;;;;1.00;0.90;;;16.20;71.70;;;;;;5040663;28;20080;-94
2023/12/15 02:12:20;;;;;;;1.23;1.13;;;16.30;71.80;;;;;;5058462;28;20045;-94
2023/12/15 02:14:46;;;;;;;0.95;0.90;;;16.20;71.70;;;;;;5064919;28;20048;-94
2023/12/15 02:17:12;;;;;;;0.90;0.90;;;16.30;71.70;;;;;;5077297;28;20452;-95
2023/12/15 02:19:37;;;;;;;1.15;1.05;;;16.20;71.70;;;;;;5041127;28;20059;-94
2023/12/15 02:22:03;;;;;;;1.00;0.90;;;16.20;71.70;;;;;;5059187;28;20048;-90
2023/12/15 02:24:29;;;;;;;1.02;1.02;;;16.30;71.70;;;;;;5051414;28;20492;-93
2023/12/15 02:26:55;;;;;;;0.80;0.80;;;16.20;71.60;;;;;;5024127;28;20526;-92
2023/12/15 02:29:20;;;;;;;1.10;1.00;;;16.20;71.60;;;;;;5003566;28;20097;-94
2023/12/15 02:31:46;;;;;;;0.90;0.90;;;16.20;71.60;;;;;;5052197;28;20043;-94
2023/12/15 02:34:11;;;;;;;1.15;1.05;;;16.30;71.70;;;;;;5075552;28;20135;-94
2023/12/15 02:36:37;;;;;;;0.90;0.90;;;16.30;71.60;;;;;;5052582;28;20465;-93
2023/12/15 02:39:02;;;;;;;0.93;0.93;;;16.20;71.70;;;;;;5043247;28;20064;-93
2023/12/15 02:41:30;;;;;;;0.80;0.80;;;16.30;71.70;;;;;;5057276;28;20049;-93
2023/12/15 02:43:55;;;;;;;0.80;0.80;;;16.30;71.70;;;;;;5066393;28;20040;-96
2023/12/15 02:46:21;;;;;;;0.90;0.90;;;16.30;71.80;;;;;;5045483;28;20094;-95
2023/12/15 02:48:46;;;;;;;1.20;1.10;;;16.30;71.50;;;;;;5048695;28;20055;-94
2023/12/15 02:51:23;;;;;;;1.00;1.00;;;16.30;71.50;;;;;;5038332;28;20129;-90
2023/12/15 02:53:48;;;;;;;0.60;0.60;;;16.30;71.60;;;;;;5039669;28;20098;-90
2023/12/15 02:56:14;;;;;;;1.35;0.80;;;16.30;71.50;;;;;;5081664;28;20040;-95
2023/12/15 02:58:39;;;;;;;0.68;0.68;;;16.20;71.40;;;;;;5065546;28;20047;-94
2023/12/15 03:01:05;;;;;;;0.85;0.85;;;16.20;71.60;;;;;;5063190;28;20131;-90
2023/12/15 03:03:31;;;;;;;0.70;0.70;;;16.20;71.40;;;;;;5041740;28;20049;-92
2023/12/15 03:05:56;;;;;;;1.00;1.00;;;16.20;71.40;;;;;;5053289;28;20063;-91
2023/12/15 03:08:24;;;;;;;0.80;0.80;;;16.20;71.40;;;;;;5063116;28;20806;-89
2023/12/15 03:10:51;;;;;;;0.70;0.70;;;16.20;71.50;;;;;;5048720;28;20079;-89
2023/12/15 03:13:17;;;;;;;0.60;0.60;;;16.20;71.40;;;;;;5031198;28;20036;-89
2023/12/15 03:15:42;;;;;;;0.85;0.85;;;16.20;71.50;;;;;;5031373;28;20518;-88
2023/12/15 03:18:08;;;;;;;0.73;0.73;;;16.20;71.40;;;;;;5067192;28;20045;-88
2023/12/15 03:20:33;;;;;;;0.80;0.80;;;16.20;72.20;;;;;;5062634;28;20044;-89
2023/12/15 03:23:00;;;;;;;0.85;0.60;;;16.20;71.40;;;;;;5039762;28;20137;-89
2023/12/15 03:25:26;;;;;;;0.80;0.75;;;16.20;71.40;;;;;;5070089;28;20113;-88
2023/12/15 03:27:51;;;;;;;0.60;0.60;;;16.20;71.40;;;;;;5060874;28;20090;-89
2023/12/15 03:30:17;;;;;;;0.65;0.65;;;16.20;71.40;;;;;;5058305;28;20131;-90
2023/12/15 03:32:42;;;;;;;0.90;0.90;;;16.20;71.30;;;;;;5027077;28;20045;-90
2023/12/15 03:35:08;;;;;;;0.70;0.70;;;16.20;71.30;;;;;;5043245;28;20045;-91
2023/12/15 03:37:33;;;;;;;0.60;0.60;;;16.20;71.70;;;;;;5062231;28;20451;-91
2023/12/15 03:39:59;;;;;;;0.80;0.80;;;16.20;71.30;;;;;;5053927;28;20048;-92
2023/12/15 03:42:24;;;;;;;0.80;0.80;;;16.10;71.10;;;;;;5037451;28;20032;-93
2023/12/15 03:44:50;;;;;;;1.10;1.00;;;16.20;71.20;;;;;;5046804;28;20041;-92
2023/12/15 03:47:16;;;;;;;0.70;0.70;;;16.10;71.90;;;;;;5054074;28;20140;-94
2023/12/15 03:49:41;;;;;;;0.82;0.60;;;16.10;71.10;;;;;;5067373;28;20037;-92
2023/12/15 03:52:07;;;;;;;0.70;0.70;;;16.10;71.10;;;;;;5053211;28;20045;-93
2023/12/15 03:54:33;;;;;;;0.88;0.68;;;16.10;71.10;;;;;;5035446;28;20571;-93
2023/12/15 03:56:58;;;;;;;0.73;0.73;;;16.10;71.10;;;;;;5063249;28;20514;-90
2023/12/15 03:59:24;;;;;;;0.82;0.50;;;16.10;71.10;;;;;;5043208;28;20474;-90
2023/12/15 04:01:50;;;;;;;0.68;0.68;;;16.10;71.10;;;;;;5061239;28;20041;-89
2023/12/15 04:04:15;;;;;;;0.45;0.45;;;16.20;71.20;;;;;;5063360;28;20154;-94
2023/12/15 04:06:41;;;;;;;0.50;0.47;;;16.10;71.10;;;;;;5063819;28;20051;-94
2023/12/15 04:09:09;;;;;;;0.60;0.60;;;16.10;71.10;;;;;;5060392;28;20135;-94
2023/12/15 04:11:36;;;;;;;0.88;0.70;;;16.10;71.10;;;;;;5075738;28;20086;-93
2023/12/15 04:14:01;;;;;;;0.70;0.70;;;16.10;71.10;;;;;;5046131;28;20101;-94
2023/12/15 04:16:27;;;;;;;0.70;0.70;;;16.10;71.30;;;;;;5051832;28;20123;-93
2023/12/15 04:18:52;;;;;;;0.57;0.57;;;16.10;71.10;;;;;;5072221;28;20044;-95
2023/12/15 04:21:18;;;;;;;0.80;0.70;;;16.10;71.10;;;;;;5060235;28;20052;-94
2023/12/15 04:23:44;;;;;;;0.70;0.70;;;16.10;71.10;;;;;;5064960;28;20064;-93
2023/12/15 04:26:09;;;;;;;0.73;0.70;;;16.10;71.00;;;;;;5060504;28;20113;-94
2023/12/15 04:28:35;;;;;;;0.68;0.50;;;16.10;71.10;;;;;;5062938;28;20584;-94
2023/12/15 04:31:00;;;;;;;0.65;0.60;;;16.10;71.00;;;;;;5028181;28;20036;-94
2023/12/15 04:33:26;;;;;;;0.55;0.55;;;16.10;71.10;;;;;;5033232;28;20091;-96
2023/12/15 04:35:51;;;;;;;0.93;0.60;;;16.10;71.10;;;;;;5058417;28;20049;-96
2023/12/15 04:38:17;;;;;;;0.80;0.80;;;16.10;71.10;;;;;;5034239;28;20093;-95
2023/12/15 04:40:42;;;;;;;0.80;0.80;;;16.10;71.10;;;;;;5084752;28;20094;-96
2023/12/15 04:43:09;;;;;;;0.95;0.50;;;16.10;71.00;;;;;;5063586;28;20052;-96
2023/12/15 04:45:34;;;;;;;0.60;0.60;;;16.10;71.10;;;;;;5052808;28;20044;-95
2023/12/15 04:48:00;;;;;;;0.75;0.75;;;16.10;71.10;;;;;;5052523;28;20048;-95
2023/12/15 04:50:25;;;;;;;0.60;0.60;;;16.10;71.00;;;;;;5044452;28;20520;-95
2023/12/15 04:52:51;;;;;;;0.55;0.50;;;16.10;71.90;;;;;;5074194;28;20059;-92
2023/12/15 04:55:17;;;;;;;0.80;0.80;;;16.10;71.10;;;;;;5064945;28;20049;-96
2023/12/15 04:57:42;;;;;;;0.65;0.60;;;16.10;71.10;;;;;;5058607;28;20517;-96
2023/12/15 05:00:08;;;;;;;0.60;0.60;;;16.10;71.10;;;;;;5079351;28;20040;-96
2023/12/15 05:02:34;;;;;;;0.60;0.60;;;16.10;71.10;;;;;;5056209;28;20121;-95
2023/12/15 05:04:59;;;;;;;0.60;0.50;;;16.10;71.10;;;;;;5026400;28;20116;-95
2023/12/15 05:07:25;;;;;;;0.55;0.55;;;16.00;71.10;;;;;;5078503;28;20045;-95
2023/12/15 05:09:50;;;;;;;0.47;0.43;;;16.00;71.00;;;;;;5038528;28;20052;-96
2023/12/15 05:12:16;;;;;;;0.50;0.50;;;16.00;71.00;;;;;;5041085;28;20590;-95
2023/12/15 05:14:42;;;;;;;0.70;0.70;;;16.10;71.10;;;;;;5044888;28;20410;-91
2023/12/15 05:17:08;;;;;;;0.50;0.50;;;16.00;71.10;;;;;;5058742;28;20037;-91
2023/12/15 05:19:33;;;;;;;0.40;0.40;;;16.00;71.10;;;;;;5046705;28;20116;-90
2023/12/15 05:21:59;;;;;;;0.40;0.40;;;16.00;71.10;;;;;;5056357;28;20665;-96
2023/12/15 05:24:25;;;;;;;0.60;0.60;;;16.00;71.10;;;;;;5050717;28;20088;-96
2023/12/15 05:26:50;;;;;;;0.50;0.50;;;16.00;71.10;;;;;;5021762;28;20044;-96
2023/12/15 05:29:16;;;;;;;0.50;0.47;;;16.00;71.10;;;;;;5055412;28;20043;-95
2023/12/15 05:31:44;;;;;;;0.82;0.80;;;16.00;71.10;;;;;;5060904;28;20055;-95
2023/12/15 05:34:09;;;;;;;0.50;0.50;;;16.00;71.20;;;;;;5055316;28;20108;-95
2023/12/15 05:36:35;;;;;;;0.40;0.40;;;16.00;71.20;;;;;;5066991;28;20495;-95
2023/12/15 05:39:00;;;;;;;0.47;0.43;;;16.00;71.20;;;;;;5062466;28;20037;-95
2023/12/15 05:41:26;;;;;;;0.57;0.50;;;16.00;71.20;;;;;;5064204;28;20052;-95
2023/12/15 05:43:52;;;;;;;0.57;0.57;;;16.00;71.20;;;;;;5068614;28;20143;-95
2023/12/15 05:46:19;;;;;;;0.80;0.80;;;16.00;71.20;;;;;;5062638;28;20045;-95
2023/12/15 05:48:45;;;;;;;0.70;0.70;;;16.00;71.30;;;;;;5069386;28;20098;-90
2023/12/15 05:51:10;;;;;;;0.55;0.50;;;16.00;71.30;;;;;;5057975;28;20408;-90
2023/12/15 05:53:36;;;;;;;0.73;0.73;;;16.00;71.30;;;;;;5063667;28;20032;-90
2023/12/15 05:56:01;;;;;;;0.52;0.52;;;16.00;71.30;;;;;;5067405;28;20043;-92
2023/12/15 05:58:27;;;;;;;0.65;0.65;;;16.00;71.30;;;;;;5068781;28;20044;-92
2023/12/15 06:00:53;;;;;;;0.70;0.70;;;16.00;71.30;;;;;;5066220;28;20041;-91
2023/12/15 06:03:18;;;;;;;0.70;0.60;;;16.00;71.30;;;;;;5047417;28;20536;-94
2023/12/15 06:05:44;;;;;;;0.50;0.50;;;16.00;71.30;;;;;;5068712;28;20036;-90
2023/12/15 06:08:10;;;;;;;0.60;0.50;;;16.00;71.30;;;;;;5065785;28;20101;-90
2023/12/15 06:10:36;;;;;;;0.70;0.65;;;16.00;72.10;;;;;;5064782;28;20135;-90
2023/12/15 06:13:01;;;;;;;1.77;0.68;;;16.00;71.30;;;;;;5079751;28;20127;-93
2023/12/15 06:15:27;;;;;;;0.50;0.50;;;16.00;71.30;;;;;;5049692;28;20048;-92
2023/12/15 06:17:52;;;;;;;0.70;0.60;;;16.00;71.30;;;;;;5067498;28;20047;-94
2023/12/15 06:20:18;;;;;;;0.60;0.60;;;16.00;71.30;;;;;;5051135;28;20086;-88
2023/12/15 06:22:43;;;;;;;0.55;0.55;;;16.00;71.30;;;;;;5061237;28;20457;-86
2023/12/15 06:25:09;;;;;;;0.70;0.68;;;16.00;71.40;;;;;;5049768;28;20052;-87
2023/12/15 06:27:35;;;;;;;0.90;0.80;;;16.00;71.60;;;;;;5070404;28;20048;-86
2023/12/15 06:30:00;;;;;;;0.60;0.47;;;16.00;71.70;;;;;;5059977;28;20071;-86
2023/12/15 06:32:26;;;;;;;0.50;0.50;;;16.00;72.00;;;;;;5039480;28;20118;-86
2023/12/15 06:34:51;;;;;;;0.47;0.47;;;16.00;71.70;;;;;;5068876;28;20112;-89
2023/12/15 06:37:17;;;;;;;0.75;0.75;;;16.00;72.20;;;;;;5039900;28;20099;-86
2023/12/15 06:39:45;;;;;;;0.50;0.43;;;16.00;72.10;;;;;;4699848;28;9999625;-87
2023/12/15 06:42:11;;;;;;;0.82;0.80;;;16.00;72.50;;;;;;5055724;28;20045;-90
2023/12/15 06:44:37;;;;;;;0.98;0.73;;;16.00;72.50;;;;;;5028752;28;20048;-92
2023/12/15 06:47:03;;;;;;;0.80;0.80;;;16.00;72.60;;;;;;5068821;28;20078;-89
2023/12/15 06:49:31;;;;;;;1.45;0.70;;;16.10;73.20;;;;;;5047313;28;20137;-90
2023/12/15 06:51:57;;;;;;;1.58;0.77;;;16.00;72.40;;;;;;5054858;28;20043;-86
2023/12/15 06:54:23;;;;;;;0.50;0.50;;;16.00;72.40;;;;;;5048799;28;20406;-92
2023/12/15 06:56:49;;;;;;;0.98;0.70;;;16.00;72.50;;;;;;5076283;28;20044;-91
2023/12/15 06:59:14;;;;;;;2.70;0.60;;;16.00;72.40;;;;;;5065797;28;20049;-91
2023/12/15 07:01:40;;;;;;;1.42;0.55;;;16.10;72.50;;;;;;5054961;28;20044;-93
2023/12/15 07:04:05;;;;;;;1.85;0.70;;;16.10;72.40;;;;;;5061739;28;20044;-91
2023/12/15 07:06:31;;;;;;;2.05;0.90;;;16.10;73.20;;;;;;5055832;28;20539;-91
2023/12/15 07:09:00;;;;;;;1.42;0.68;;;16.10;72.60;;;;;;5035431;28;20075;-89
2023/12/15 07:11:26;;;;;;;0.70;0.70;;;16.10;72.50;;;;;;5049248;28;20114;-89
2023/12/15 07:13:51;;;;;;;1.30;0.80;;;16.10;72.50;;;;;;5071330;28;20048;-89
2023/12/15 07:16:17;;;;;;;1.00;0.90;;;16.10;72.50;;;;;;5054686;28;20044;-88
2023/12/15 07:18:43;;;;;;;0.90;0.90;;;16.10;72.40;;;;;;5049073;28;20041;-88
2023/12/15 07:21:08;;;;;;;0.73;0.73;;;16.10;72.30;;;;;;5014559;28;20109;-89
2023/12/15 07:23:34;;;;;;;0.98;0.60;;;16.10;72.30;;;;;;5027792;28;20084;-88
2023/12/15 07:26:00;;;;;;;1.13;0.70;;;16.00;72.10;;;;;;5017992;28;20734;-85
2023/12/15 07:28:26;;;;;;;1.00;0.80;;;16.10;72.20;;;;;;5040280;28;20075;-89
2023/12/15 07:30:51;;;;;;;1.27;0.60;;;16.10;72.10;;;;;;5044692;28;20052;-95
2023/12/15 07:33:17;;;;;;;0.70;0.70;;;16.10;72.00;;;;;;5028983;28;20064;-90
2023/12/15 07:35:42;;;;;;;1.20;0.73;;;16.10;72.20;;;;;;5051568;28;20094;-92
2023/12/15 07:38:09;;;;;;;0.70;0.70;;;16.10;72.30;;;;;;5031217;28;20555;-88
2023/12/15 07:40:35;;;;;;;1.88;0.70;;;16.10;72.40;;;;;;5037111;28;20049;-88
2023/12/15 07:43:00;;;;;;;0.82;0.75;;;16.10;72.10;;;;;;5039993;28;20409;-84
2023/12/15 07:45:27;;;;;;;1.17;0.55;;;16.10;72.10;;;;;;5052676;28;20053;-86
2023/12/15 07:47:53;;;;;;;3.13;0.80;;;16.10;72.00;;;;;;5059667;28;20078;-93
2023/12/15 07:50:19;;;;;;;1.42;0.73;;;16.10;72.00;;;;;;5022198;28;20471;-84
2023/12/15 07:52:45;;;;;;;0.77;0.55;;;16.00;71.90;;;;;;5049048;28;20075;-88
2023/12/15 07:55:11;;;;;;;5.15;0.77;;;16.10;72.00;;;;;;5049177;28;20049;-88
2023/12/15 07:57:36;;;;;;;0.80;0.70;;;16.00;72.00;;;;;;5011195;28;20041;-89
2023/12/15 08:00:05;;;;;;;0.77;0.52;;;16.00;71.90;;;;;;5025312;28;20045;-86
2023/12/15 08:02:31;;;;;;;0.75;0.65;;;16.00;71.90;;;;;;5043391;28;20414;-89
2023/12/15 08:04:56;;;;;;;0.63;0.50;;;16.10;72.10;;;;;;5039393;28;20053;-90
2023/12/15 08:07:22;;;;;;;0.90;0.75;;;16.00;71.90;;;;;;5043756;28;20139;-89
2023/12/15 08:09:47;;;;;;;0.55;0.47;;;16.00;71.90;;;;;;5072379;28;20041;-89
2023/12/15 08:12:13;;;;;;;1.15;0.75;;;16.00;71.90;;;;;;5020985;28;20038;-89
2023/12/15 08:14:39;;;;;;;0.68;0.60;;;16.00;71.90;;;;;;5065795;28;20044;-89
2023/12/15 08:17:04;;;;;;;0.90;0.75;;;16.00;71.90;;;;;;5051210;28;20525;-89
2023/12/15 08:19:31;;;;;;;0.88;0.70;;;16.00;71.90;;;;;;5059036;28;20036;-89
2023/12/15 08:21:57;;;;;;;0.60;0.57;;;16.00;72.00;;;;;;5036180;28;20154;-89
2023/12/15 08:24:23;;;;;;;0.60;0.50;;;16.00;71.90;;;;;;5034794;28;20503;-89
2023/12/15 08:26:49;;;;;;;1.20;0.70;;;16.00;71.90;;;;;;5036534;28;20045;-89
2023/12/15 08:29:15;;;;;;;0.50;0.50;;;16.00;71.90;;;;;;5043831;28;20075;-89
2023/12/15 08:31:40;;;;;;;0.80;0.60;;;16.00;71.90;;;;;;5042822;28;20044;-89
2023/12/15 08:34:06;;;;;;;0.60;0.60;;;16.00;71.90;;;;;;5046780;28;20064;-89
2023/12/15 08:36:31;;;;;;;0.80;0.70;;;16.00;72.00;;;;;;5010584;28;20041;-89
2023/12/15 08:38:57;;;;;;;0.75;0.60;;;16.00;72.00;;;;;;5040175;28;20094;-89
2023/12/15 08:41:22;;;;;;;0.60;0.60;;;16.00;72.00;;;;;;5052428;28;20053;-89
2023/12/15 08:43:48;;;;;;;0.75;0.70;;;16.00;72.00;;;;;;5039861;28;20094;-89
2023/12/15 08:46:14;;;;;;;0.55;0.55;;;16.00;72.00;;;;;;5056704;28;20055;-89
2023/12/15 08:48:39;;;;;;;0.80;0.50;;;16.00;72.10;;;;;;5039629;28;20026;-89
2023/12/15 08:51:05;;;;;;;0.47;0.47;;;16.00;71.90;;;;;;5039044;28;20033;-89
2023/12/15 08:53:30;;;;;;;0.80;0.80;;;16.00;72.10;;;;;;5061619;28;20541;-89
2023/12/15 08:55:56;;;;;;;0.73;0.68;;;16.00;71.90;;;;;;5067314;28;20128;-89
2023/12/15 08:58:23;;;;;;;0.68;0.40;;;16.00;72.00;;;;;;5042869;28;20498;-89
2023/12/15 09:00:49;;;;;;;0.60;0.50;;;16.00;72.10;;;;;;5042056;28;20036;-89
2023/12/15 09:03:14;;;;;;;1.08;0.85;;;16.00;72.10;;;;;;5034584;28;20582;-89
2023/12/15 09:05:40;;;;;;;2.13;0.60;;;16.00;72.00;;;;;;5020120;28;20037;-89
2023/12/15 09:08:05;;;;;;;1.10;0.68;;;16.00;72.00;;;;;;5041457;28;20115;-88
2023/12/15 09:10:33;;;;;;;0.52;0.50;;;16.00;71.90;;;;;;5067828;28;20387;-89
2023/12/15 09:13:02;;;;;;;0.60;0.60;;;16.00;72.10;;;;;;5030492;28;20052;-88
2023/12/15 09:15:27;;;;;;;0.80;0.65;;;16.00;72.00;;;;;;5027440;28;20051;-89
2023/12/15 09:17:53;;;;;;;1.05;0.77;;;16.00;72.20;;;;;;5077215;28;20049;-90
2023/12/15 09:20:18;;;;;;;2.45;0.63;;;16.00;72.00;;;;;;5078337;28;20522;-89
2023/12/15 09:22:45;;;;;;;0.68;0.57;;;16.00;72.30;;;;;;5065408;28;20044;-89
2023/12/15 09:25:10;;;;;;;0.65;0.57;;;16.00;72.00;;;;;;5046070;28;20029;-89
2023/12/15 09:27:36;;;;;;;0.70;0.60;;;16.00;72.10;;;;;;5057638;28;20509;-89
2023/12/15 09:30:02;;;;;;;1.00;0.90;;;16.00;72.00;;;;;;5029003;28;20040;-89
2023/12/15 09:32:27;;;;;;;0.82;0.60;;;16.00;72.10;;;;;;5065944;28;20127;-89
2023/12/15 09:34:53;;;;;;;0.77;0.70;;;16.00;71.90;;;;;;5043465;28;20144;-87
2023/12/15 09:37:19;;;;;;;0.50;0.50;;;16.00;71.90;;;;;;5080733;28;20524;-88
2023/12/15 09:39:44;;;;;;;0.60;0.60;;;16.00;71.90;;;;;;5024895;28;20045;-89
2023/12/15 09:42:10;;;;;;;1.40;0.60;;;16.00;71.90;;;;;;5030320;28;20562;-89
2023/12/15 09:44:35;;;;;;;1.10;0.85;;;16.00;72.00;;;;;;5025268;28;20168;-89
2023/12/15 09:47:01;;;;;;;1.42;0.60;;;16.00;71.80;;;;;;5063493;28;20025;-89
2023/12/15 09:49:27;;;;;;;1.98;0.70;;;16.00;71.70;;;;;;5068359;28;21102;-89
2023/12/15 09:51:53;;;;;;;0.55;0.50;;;16.00;71.90;;;;;;5027444;28;20075;-89
2023/12/15 09:54:19;;;;;;;0.77;0.75;;;16.00;71.80;;;;;;5046303;28;20068;-89
2023/12/15 09:56:46;;;;;;;0.70;0.70;;;16.00;71.90;;;;;;5045187;28;20131;-89
2023/12/15 09:59:12;;;;;;;0.65;0.65;;;16.00;71.90;;;;;;5072095;28;20049;-89
2023/12/15 10:01:37;;;;;;;0.88;0.80;;;16.00;71.90;;;;;;5031534;28;20041;-89
2023/12/15 10:04:07;;;;;;;1.10;0.70;;;16.00;71.70;;;;;;5054009;28;20040;-89
2023/12/15 10:06:36;;;;;;;0.60;0.60;;;16.00;72.10;;;;;;5056857;28;20063;-89
2023/12/15 10:09:03;;;;;;;1.10;0.80;;;16.00;71.80;;;;;;5055131;28;20060;-89
2023/12/15 10:11:32;;;;;;;0.80;0.65;;;16.00;71.90;;;;;;5048009;28;20612;-87
2023/12/15 10:13:59;;;;;;;1.08;0.80;;;16.00;71.80;;;;;;5040716;28;22117;-88
2023/12/15 10:16:27;;;;;;;0.82;0.60;;;16.00;71.80;;;;;;5072162;28;20514;-89
2023/12/15 10:18:52;;;;;;;0.60;0.57;;;16.00;71.80;;;;;;5072052;28;20044;-88
2023/12/15 10:21:18;;;;;;;1.10;0.73;;;16.00;72.00;;;;;;5069847;28;20048;-88
2023/12/15 10:23:43;;;;;;;0.85;0.70;;;16.00;71.70;;;;;;5047224;28;20045;-89
2023/12/15 10:26:09;;;;;;;1.00;0.60;;;16.00;71.70;;;;;;5043666;28;20139;-89
2023/12/15 10:28:38;;;;;;;0.70;0.68;;;16.00;71.70;;;;;;5048117;28;20392;-88
2023/12/15 10:31:07;;;;;;;1.02;0.65;;;16.00;71.70;;;;;;5041529;28;20060;-89
2023/12/15 10:33:33;;;;;;;0.90;0.90;;;16.00;71.80;;;;;;5057507;28;20037;-88
2023/12/15 10:36:00;;;;;;;0.93;0.65;;;16.00;71.70;;;;;;5073815;28;20131;-88
2023/12/15 10:38:29;;;;;;;0.63;0.63;;;16.00;71.70;;;;;;5056185;28;20131;-88
2023/12/15 10:40:56;;;;;;;0.82;0.70;;;16.00;71.80;;;;;;5057047;28;20053;-89
2023/12/15 10:43:22;;;;;;;1.38;0.95;;;16.00;71.60;;;;;;5071607;28;20043;-88
2023/12/15 10:45:47;;;;;;;0.80;0.50;;;16.00;71.60;;;;;;5041258;28;20045;-88
2023/12/15 10:48:13;;;;;;;0.82;0.60;;;16.00;71.60;;;;;;5053497;28;20116;-88
2023/12/15 10:50:41;;;;;;;0.95;0.65;;;16.10;71.60;;;;;;5036978;28;20044;-88
2023/12/15 10:53:07;;;;;;;2.00;0.75;;;16.10;71.50;;;;;;5029220;28;20044;-88
2023/12/15 10:55:32;;;;;;;1.30;1.02;;;16.10;71.70;;;;;;5041034;28;20073;-88
2023/12/15 10:58:00;;;;;;;0.93;0.45;;;16.10;71.60;;;;;;5068955;28;20036;-88
2023/12/15 11:00:25;;;;;;;1.00;0.57;;;16.10;71.60;;;;;;5061992;28;20037;-87
2023/12/15 11:02:51;;;;;;;1.80;0.70;;;16.10;71.40;;;;;;5058131;28;20051;-88
2023/12/15 11:05:16;;;;;;;0.68;0.50;;;16.10;71.80;;;;;;5025575;28;20044;-88
2023/12/15 11:07:42;;;;;;;0.68;0.68;;;16.10;71.50;;;;;;5054647;28;20041;-88
2023/12/15 11:10:09;;;;;;;2.00;0.50;;;16.10;71.40;;;;;;5058349;28;20063;-89
2023/12/15 11:12:38;;;;;;;0.88;0.60;;;16.10;71.50;;;;;;5029643;28;20502;-89
2023/12/15 11:15:08;;;;;;;0.80;0.68;;;16.10;71.40;;;;;;5038894;28;20047;-88
2023/12/15 11:17:41;;;;;;;0.60;0.60;;;16.10;71.50;;;;;;5028963;28;20029;-88
2023/12/15 11:20:20;;;;;;;0.85;0.50;;;16.10;71.40;;;;;;5018212;28;20140;-88
2023/12/15 11:22:58;;;;;;;0.65;0.63;;;16.10;71.40;;;;;;5037913;28;20514;-85
2023/12/15 11:25:30;;;;;;;0.70;0.70;;;16.10;71.40;;;;;;5031498;28;20567;-93
2023/12/15 11:28:13;;;;;;;0.60;0.60;;;16.10;71.40;;;;;;5055975;28;20038;-93
2023/12/15 11:30:48;;;;;;;0.95;0.65;;;16.10;71.70;;;;;;5055245;28;20158;-93
2023/12/15 11:33:32;;;;;;;0.80;0.73;;;16.10;71.60;;;;;;5071665;28;20076;-90
2023/12/15 11:36:01;;;;;;;0.63;0.60;;;16.10;71.40;;;;;;5058009;28;20071;-93
2023/12/15 11:38:27;;;;;;;0.95;0.73;;;16.10;71.40;;;;;;5056290;28;20107;-92
2023/12/15 11:40:55;;;;;;;1.45;1.00;;;16.10;71.40;;;;;;5053812;28;20088;-93
2023/12/15 11:43:21;;;;;;;0.68;0.68;;;16.10;71.40;;;;;;5049985;28;20088;-94
2023/12/15 11:45:51;;;;;;;0.80;0.73;;;16.10;71.40;;;;;;5031055;28;20076;-93
2023/12/15 11:48:16;;;;;;;0.73;0.70;;;16.10;71.40;;;;;;5051698;28;20049;-93
2023/12/15 11:50:44;;;;;;;0.80;0.80;;;16.10;72.10;;;;;;5045327;28;20548;-93
2023/12/15 11:53:10;;;;;;;0.80;0.63;;;16.10;71.20;;;;;;5046474;28;20052;-93
2023/12/15 11:55:36;;;;;;;1.83;0.60;;;16.10;71.40;;;;;;5061602;28;20044;-94
2023/12/15 11:58:02;;;;;;;1.88;0.75;;;16.10;71.30;;;;;;5029522;28;20045;-93
2023/12/15 12:00:28;;;;;;;1.10;0.75;;;16.10;71.10;;;;;;5076596;28;20047;-93
2023/12/15 12:02:55;;;;;;;0.95;0.77;;;16.10;71.10;;;;;;5049420;28;20049;-93
2023/12/15 12:05:21;;;;;;;1.80;0.60;;;16.10;71.00;;;;;;5074526;28;20105;-92
2023/12/15 12:07:47;;;;;;;0.85;0.80;;;16.10;71.00;;;;;;5065411;28;20049;-92
2023/12/15 12:10:13;;;;;;;1.33;0.77;;;16.10;70.90;;;;;;5058667;28;20048;-93
2023/12/15 12:12:38;;;;;;;1.23;0.90;;;16.10;70.90;;;;;;5031630;28;20380;-93
2023/12/15 12:15:05;;;;;;;0.85;0.80;;;16.10;70.90;;;;;;5046287;28;20060;-93
2023/12/15 12:17:31;;;;;;;1.23;0.47;;;16.10;70.90;;;;;;5056182;28;21473;-93
2023/12/15 12:20:06;;;;;;;1.30;0.68;;;16.10;70.90;;;;;;5079189;28;20505;-93
2023/12/15 12:22:42;;;;;;;0.70;0.60;;;16.10;71.00;;;;;;5072800;28;20123;-93
2023/12/15 12:25:10;;;;;;;0.68;0.50;;;16.10;70.80;;;;;;5056592;28;20043;-93
2023/12/15 12:27:35;;;;;;;1.33;0.50;;;16.10;70.70;;;;;;5026804;28;20045;-92
2023/12/15 12:30:02;;;;;;;1.25;0.82;;;16.10;70.70;;;;;;5023992;28;20532;-94
2023/12/15 12:32:28;;;;;;;0.60;0.50;;;16.10;70.70;;;;;;5062241;28;20054;-92
2023/12/15 12:34:53;;;;;;;0.90;0.57;;;16.10;70.70;;;;;;5032481;28;20797;-92
2023/12/15 12:37:19;;;;;;;1.08;0.63;;;16.10;70.60;;;;;;5059672;28;20051;-93
2023/12/15 12:39:45;;;;;;;0.70;0.57;;;16.10;70.70;;;;;;5053560;28;20078;-92
2023/12/15 12:42:11;;;;;;;0.80;0.50;;;16.20;70.80;;;;;;5066172;28;20126;-92